createdAt,value
2023-04-17T00:01:06.221Z,70.13
2023-04-17T00:03:41.809Z,67.13
2023-04-17T00:06:15.521Z,73.35
2023-04-17T00:08:48.979Z,77.75
2023-04-17T00:11:24.394Z,65.60
2023-04-17T00:13:57.251Z,73.10
2023-04-17T00:16:30.620Z,76.53
2023-04-17T00:19:03.517Z,55.95
2023-04-17T00:21:36.885Z,71.93
2023-04-17T00:24:14.236Z,72.93
2023-04-17T00:26:49.379Z,75.22
2023-04-17T00:29:23.241Z,79.95
2023-04-17T00:31:57.146Z,79.82
2023-04-17T00:34:31.999Z,84.13
2023-04-17T00:37:08.881Z,75.15
2023-04-17T00:39:46.958Z,90.93
2023-04-17T00:42:23.920Z,78.05
2023-04-17T00:45:03.709Z,72.70
2023-04-17T00:47:37.977Z,80.85
2023-04-17T00:50:13.664Z,84.63
2023-04-17T00:52:48.594Z,84.43
2023-04-17T00:55:24.073Z,79.18
2023-04-17T00:58:03.123Z,74.57
2023-04-17T01:00:41.707Z,75.40
2023-04-17T01:03:20.708Z,66.85
2023-04-17T01:05:58.851Z,61.10
2023-04-17T01:08:40.942Z,77.40
2023-04-17T01:11:15.785Z,72.75
2023-04-17T01:13:55.759Z,70.82
2023-04-17T01:16:31.832Z,75.05
2023-04-17T01:19:06.702Z,74.10
2023-04-17T01:21:41.270Z,65.00
2023-04-17T01:24:16.820Z,69.72
2023-04-17T01:26:50.809Z,75.03
2023-04-17T01:29:25.653Z,72.97
2023-04-17T01:32:02.915Z,68.43
2023-04-17T01:34:40.512Z,75.03
2023-04-17T01:37:16.962Z,66.00
2023-04-17T01:39:56.797Z,67.43
2023-04-17T01:42:31.451Z,75.65
2023-04-17T01:45:10.270Z,86.93
2023-04-17T01:47:47.768Z,73.38
2023-04-17T01:50:22.705Z,77.57
2023-04-17T01:52:55.657Z,77.30
2023-04-17T01:55:35.299Z,66.10
2023-04-17T01:58:11.572Z,65.55
2023-04-17T02:00:53.637Z,59.90
2023-04-17T02:03:31.758Z,53.75
2023-04-17T02:06:07.882Z,60.03
2023-04-17T02:08:43.158Z,57.97
2023-04-17T02:11:19.345Z,57.13
2023-04-17T02:13:57.352Z,65.95
2023-04-17T02:16:33.240Z,58.28
2023-04-17T02:21:56.793Z,58.97
2023-04-17T02:24:33.409Z,64.32
2023-04-17T02:27:08.948Z,64.80
2023-04-17T02:29:43.185Z,67.28
2023-04-17T02:32:16.417Z,54.45
2023-04-17T02:34:55.948Z,60.90
2023-04-17T02:37:29.660Z,63.58
2023-04-17T02:40:08.217Z,54.35
2023-04-17T02:42:44.833Z,64.35
2023-04-17T02:45:20.599Z,50.00
2023-04-17T02:47:53.853Z,48.95
2023-04-17T02:50:27.818Z,57.67
2023-04-17T02:53:18.946Z,56.90
2023-04-17T02:55:55.024Z,70.68
2023-04-17T02:58:33.992Z,56.53
2023-04-17T03:01:08.540Z,50.92
2023-04-17T03:03:49.803Z,45.03
2023-04-17T03:06:23.831Z,49.92
2023-04-17T03:09:00.103Z,43.30
2023-04-17T03:11:33.986Z,54.15
2023-04-17T03:14:10.025Z,49.13
2023-04-17T03:16:44.050Z,52.75
2023-04-17T03:19:18.127Z,51.33
2023-04-17T03:21:55.760Z,58.25
2023-04-17T03:24:32.309Z,49.35
2023-04-17T03:27:09.732Z,46.78
2023-04-17T03:29:52.718Z,45.92
2023-04-17T03:32:27.730Z,46.20
2023-04-17T03:35:01.820Z,47.00
2023-04-17T03:37:37.018Z,57.03
2023-04-17T03:40:13.348Z,49.53
2023-04-17T03:42:51.011Z,50.65
2023-04-17T03:45:26.993Z,50.63
2023-04-17T03:48:00.374Z,57.50
2023-04-17T03:50:37.595Z,50.67
2023-04-17T03:53:14.450Z,51.47
2023-04-17T03:55:55.694Z,49.92
2023-04-17T03:58:34.120Z,50.03
2023-04-17T04:01:14.186Z,54.03
2023-04-17T04:04:01.980Z,42.78
2023-04-17T04:06:36.185Z,59.63
2023-04-17T04:09:11.253Z,55.60
2023-04-17T04:11:52.285Z,54.13
2023-04-17T04:14:32.720Z,48.25
2023-04-17T04:17:12.910Z,45.72
2023-04-17T04:19:47.744Z,49.38
2023-04-17T04:22:25.330Z,37.35
2023-04-17T04:25:02.741Z,35.72
2023-04-17T04:27:54.239Z,41.85
2023-04-17T04:30:31.931Z,35.80
2023-04-17T04:33:17.510Z,43.58
2023-04-17T04:36:03.026Z,43.97
2023-04-17T04:38:40.599Z,42.30
2023-04-17T04:41:29.726Z,43.65
2023-04-17T04:44:05.895Z,41.60
2023-04-17T04:46:45.154Z,39.45
2023-04-17T04:49:21.430Z,40.63
2023-04-17T04:51:59.959Z,40.33
2023-04-17T04:54:38.450Z,43.35
2023-04-17T04:57:12.214Z,43.92
2023-04-17T04:59:47.639Z,41.75
2023-04-17T05:02:42.631Z,38.45
2023-04-17T05:05:29.363Z,40.38
2023-04-17T05:08:06.848Z,40.42
2023-04-17T05:10:47.302Z,38.28
2023-04-17T05:13:23.957Z,45.40
2023-04-17T05:16:00.321Z,36.30
2023-04-17T05:18:37.201Z,38.60
2023-04-17T05:21:19.552Z,48.03
2023-04-17T05:23:56.681Z,39.58
2023-04-17T05:26:30.511Z,42.20
2023-04-17T05:29:03.681Z,41.55
2023-04-17T05:31:39.824Z,41.53
2023-04-17T05:34:26.915Z,37.30
2023-04-17T05:37:03.183Z,38.00
2023-04-17T05:39:40.222Z,35.72
2023-04-17T05:42:14.985Z,45.53
2023-04-17T05:44:49.592Z,43.10
2023-04-17T05:47:26.751Z,43.50
2023-04-17T05:50:01.226Z,40.10
2023-04-17T05:52:39.518Z,42.45
2023-04-17T05:58:34.197Z,40.75
2023-04-17T06:01:14.376Z,43.00
2023-04-17T06:03:48.960Z,38.38
2023-04-17T06:06:28.402Z,40.22
2023-04-17T06:09:06.759Z,44.88
2023-04-17T06:11:43.849Z,44.58
2023-04-17T06:14:21.189Z,37.35
2023-04-17T06:16:55.360Z,41.03
2023-04-17T06:19:29.210Z,45.88
2023-04-17T06:22:06.228Z,39.25
2023-04-17T06:24:44.001Z,44.60
2023-04-17T06:27:18.850Z,47.15
2023-04-17T06:29:53.097Z,43.05
2023-04-17T06:32:27.283Z,49.30
2023-04-17T06:35:01.720Z,38.78
2023-04-17T06:37:46.304Z,45.90
2023-04-17T06:40:22.336Z,39.95
2023-04-17T06:42:57.790Z,35.03
2023-04-17T06:45:52.082Z,48.10
2023-04-17T06:48:29.007Z,36.80
2023-04-17T06:51:02.987Z,40.85
2023-04-17T06:53:37.103Z,39.40
2023-04-17T06:56:15.864Z,44.15
2023-04-17T06:58:51.900Z,36.55
2023-04-17T07:01:25.844Z,40.45
2023-04-17T07:03:59.523Z,40.08
2023-04-17T07:06:35.706Z,44.33
2023-04-17T07:09:10.170Z,34.85
2023-04-17T07:11:46.273Z,39.58
2023-04-17T07:14:24.270Z,40.75
2023-04-17T07:17:06.000Z,35.78
2023-04-17T07:19:41.884Z,40.92
2023-04-17T07:22:16.085Z,38.42
2023-04-17T07:24:54.876Z,39.08
2023-04-17T07:27:33.911Z,31.92
2023-04-17T07:30:13.134Z,43.55
2023-04-17T07:32:52.093Z,36.80
2023-04-17T07:35:27.434Z,34.63
2023-04-17T07:38:08.948Z,45.95
2023-04-17T07:40:46.927Z,41.00
2023-04-17T07:43:27.409Z,42.88
2023-04-17T07:46:03.715Z,38.40
2023-04-17T07:48:37.311Z,39.50
2023-04-17T07:51:11.647Z,42.33
2023-04-17T07:53:47.522Z,36.63
2023-04-17T07:56:22.084Z,41.67
2023-04-17T07:59:02.215Z,44.13
2023-04-17T08:01:37.528Z,42.67
2023-04-17T08:04:13.530Z,36.80
2023-04-17T08:06:47.526Z,37.25
2023-04-17T08:09:21.841Z,37.38
2023-04-17T08:11:57.911Z,40.75
2023-04-17T08:14:33.977Z,41.15
2023-04-17T08:17:09.022Z,37.28
2023-04-17T08:19:43.145Z,43.20
2023-04-17T08:22:18.767Z,36.55
2023-04-17T08:24:59.587Z,40.38
2023-04-17T08:27:33.247Z,35.65
2023-04-17T08:30:12.578Z,35.97
2023-04-17T08:32:49.099Z,48.63
2023-04-17T08:35:24.920Z,40.15
2023-04-17T08:38:00.773Z,42.03
2023-04-17T08:40:34.940Z,38.42
2023-04-17T08:43:10.329Z,44.97
2023-04-17T08:45:54.461Z,40.60
2023-04-17T08:48:29.656Z,41.40
2023-04-17T08:51:05.306Z,39.47
2023-04-17T08:53:40.293Z,39.45
2023-04-17T08:56:14.100Z,42.40
2023-04-17T08:58:47.646Z,40.63
2023-04-17T09:01:23.219Z,50.10
2023-04-17T09:04:00.401Z,52.90
2023-04-17T09:06:54.120Z,37.83
2023-04-17T09:09:28.226Z,37.28
2023-04-17T09:12:15.462Z,37.60
2023-04-17T09:14:49.363Z,43.83
2023-04-17T09:17:28.233Z,35.55
2023-04-17T09:20:10.488Z,43.90
2023-04-17T09:22:45.775Z,49.70
2023-04-17T09:25:24.956Z,43.05
2023-04-17T09:27:59.776Z,40.38
2023-04-17T09:30:40.562Z,48.50
2023-04-17T09:33:18.805Z,43.10
2023-04-17T09:35:52.453Z,39.00
2023-04-17T09:38:41.825Z,40.60
2023-04-17T09:41:28.723Z,43.08
2023-04-17T09:44:06.729Z,62.88
2023-04-17T09:46:43.087Z,44.53
2023-04-17T09:49:24.196Z,44.95
2023-04-17T09:51:58.876Z,46.97
2023-04-17T09:54:34.770Z,45.88
2023-04-17T09:57:11.002Z,47.78
2023-04-17T09:59:46.855Z,38.60
2023-04-17T10:02:25.230Z,45.58
2023-04-17T10:05:00.988Z,45.58
2023-04-17T10:07:39.409Z,38.20
2023-04-17T10:10:13.919Z,42.03
2023-04-17T10:12:48.202Z,41.05
2023-04-17T10:15:23.034Z,36.60
2023-04-17T10:18:01.730Z,43.03
2023-04-17T10:20:46.074Z,41.05
2023-04-17T10:23:37.126Z,38.72
2023-04-17T10:26:42.454Z,49.05
2023-04-17T10:29:19.620Z,41.40
2023-04-17T10:32:31.396Z,49.65
2023-04-17T10:35:06.420Z,45.45
2023-04-17T10:38:13.130Z,51.60
2023-04-17T10:40:48.626Z,42.50
2023-04-17T10:43:24.303Z,42.75
2023-04-17T10:46:05.056Z,59.00
2023-04-17T10:48:39.866Z,58.70
2023-04-17T10:51:46.894Z,45.72
2023-04-17T10:54:22.753Z,44.40
2023-04-17T10:56:59.913Z,48.47
2023-04-17T10:59:39.139Z,50.45
2023-04-17T11:02:13.036Z,48.58
2023-04-17T11:04:46.929Z,51.42
2023-04-17T11:07:22.142Z,48.35
2023-04-17T11:09:59.404Z,51.15
2023-04-17T11:12:36.625Z,46.92
2023-04-17T11:15:13.804Z,52.75
2023-04-17T11:17:52.135Z,49.95
2023-04-17T11:20:27.291Z,45.55
2023-04-17T11:23:04.540Z,54.28
2023-04-17T11:25:40.863Z,57.13
2023-04-17T11:28:18.254Z,53.50
2023-04-17T11:30:55.943Z,54.67
2023-04-17T11:33:30.189Z,52.67
2023-04-17T11:36:09.319Z,47.60
2023-04-17T11:38:52.510Z,57.05
2023-04-17T11:41:40.837Z,50.22
2023-04-17T11:44:16.181Z,49.90
2023-04-17T11:46:55.837Z,65.83
2023-04-17T11:49:33.650Z,53.90
2023-04-17T11:52:18.090Z,55.70
2023-04-17T11:55:04.003Z,49.60
2023-04-17T11:57:47.094Z,54.83
2023-04-17T12:00:24.101Z,49.33
2023-04-17T12:02:57.941Z,54.07
2023-04-17T12:05:35.951Z,60.87
2023-04-17T12:08:10.935Z,55.13
2023-04-17T12:10:49.670Z,45.53
2023-04-17T12:13:25.806Z,54.63
2023-04-17T12:16:00.026Z,52.47
2023-04-17T12:18:34.340Z,62.73
2023-04-17T12:21:08.587Z,50.93
2023-04-17T12:23:44.265Z,59.70
2023-04-17T12:26:20.959Z,51.17
2023-04-17T12:29:00.819Z,45.83
2023-04-17T12:31:37.434Z,54.83
2023-04-17T12:34:12.053Z,45.77
2023-04-17T12:36:46.328Z,61.83
2023-04-17T12:39:23.941Z,57.03
2023-04-17T12:42:01.863Z,53.93
2023-04-17T12:44:43.527Z,58.43
2023-04-17T12:47:21.465Z,64.17
2023-04-17T12:49:55.487Z,60.93
2023-04-17T12:52:29.203Z,60.77
2023-04-17T12:55:05.243Z,59.30
2023-04-17T12:57:40.767Z,57.30
2023-04-17T13:00:18.918Z,55.17
2023-04-17T13:02:53.770Z,75.77
2023-04-17T13:05:27.673Z,62.50
2023-04-17T13:08:07.781Z,66.20
2023-04-17T13:10:43.956Z,61.43
2023-04-17T13:13:18.339Z,69.63
2023-04-17T13:15:55.195Z,55.10
2023-04-17T13:18:30.879Z,59.30
2023-04-17T13:21:05.347Z,58.70
2023-04-17T13:23:39.471Z,59.90
2023-04-17T13:26:15.042Z,67.27
2023-04-17T13:28:52.279Z,58.67
2023-04-17T13:31:29.793Z,62.10
2023-04-17T13:34:05.381Z,63.43
2023-04-17T13:36:40.856Z,71.63
2023-04-17T13:39:15.277Z,66.50
2023-04-17T13:41:49.251Z,68.20
2023-04-17T13:44:22.970Z,76.67
2023-04-17T13:46:59.223Z,68.90
2023-04-17T13:49:34.448Z,67.20
2023-04-17T13:52:08.863Z,75.97
2023-04-17T13:54:42.785Z,71.50
2023-04-17T13:57:20.102Z,75.33
2023-04-17T13:59:56.714Z,61.83
2023-04-17T14:02:32.724Z,73.00
2023-04-17T14:05:08.549Z,63.73
2023-04-17T14:07:45.523Z,76.53
2023-04-17T14:10:19.364Z,63.10
2023-04-17T14:13:00.885Z,66.87
2023-04-17T14:15:36.623Z,69.87
2023-04-17T14:18:16.705Z,76.03
2023-04-17T14:20:51.866Z,58.07
2023-04-17T14:23:27.168Z,68.20
2023-04-17T14:26:03.777Z,63.27
2023-04-17T14:28:37.801Z,76.73
2023-04-17T14:31:12.234Z,65.20
2023-04-17T14:33:50.846Z,75.90
2023-04-17T14:36:24.974Z,73.93
2023-04-17T14:39:00.015Z,68.20
2023-04-17T14:41:38.976Z,65.13
2023-04-17T14:44:14.085Z,69.13
2023-04-17T14:46:57.231Z,61.13
2023-04-17T14:49:35.386Z,69.20
2023-04-17T14:52:10.953Z,67.50
2023-04-17T14:54:45.776Z,72.20
2023-04-17T14:57:20.351Z,78.77
2023-04-17T14:59:58.166Z,78.03
2023-04-17T15:02:39.658Z,76.53
2023-04-17T15:05:18.138Z,77.50
2023-04-17T15:07:51.756Z,81.10
2023-04-17T15:10:26.068Z,78.07
2023-04-17T15:13:01.960Z,90.80
2023-04-17T15:15:36.349Z,81.70
2023-04-17T15:18:13.437Z,82.17
2023-04-17T15:20:49.925Z,89.77
2023-04-17T15:23:25.227Z,83.17
2023-04-17T15:25:59.579Z,82.30
2023-04-17T15:28:34.527Z,94.43
2023-04-17T15:31:13.652Z,99.03
2023-04-17T15:33:51.586Z,82.37
2023-04-17T15:36:35.149Z,84.63
2023-04-17T15:39:09.860Z,85.63
2023-04-17T15:41:44.921Z,83.63
2023-04-17T15:44:21.817Z,86.87
2023-04-17T15:46:56.673Z,84.00
2023-04-17T15:49:32.527Z,82.63
2023-04-17T15:52:14.022Z,76.80
2023-04-17T15:54:48.227Z,80.57
2023-04-17T15:57:21.661Z,75.73
2023-04-17T15:59:55.684Z,68.13
2023-04-17T16:02:29.678Z,62.97
2023-04-17T16:05:03.756Z,73.60
2023-04-17T16:07:39.067Z,71.40
2023-04-17T16:10:17.194Z,58.33
2023-04-17T16:12:52.956Z,60.10
2023-04-17T16:15:26.893Z,58.83
2023-04-17T16:18:02.980Z,52.10
2023-04-17T16:20:37.675Z,51.00
2023-04-17T16:23:14.240Z,45.37
2023-04-17T16:25:50.364Z,43.93
2023-04-17T16:28:24.283Z,40.67
2023-04-17T16:30:58.532Z,48.27
2023-04-17T16:33:33.260Z,44.13
2023-04-17T16:36:07.758Z,43.50
2023-04-17T16:38:43.290Z,38.83
2023-04-17T16:41:16.898Z,37.30
2023-04-17T16:43:54.013Z,33.80
2023-04-17T16:46:43.156Z,33.17
2023-04-17T16:49:24.418Z,33.23
2023-04-17T16:51:58.524Z,33.63
2023-04-17T16:54:37.170Z,34.20
2023-04-17T16:57:13.821Z,31.30
2023-04-17T16:59:50.409Z,35.57
2023-04-17T17:02:24.546Z,27.87
2023-04-17T17:04:59.735Z,28.27
2023-04-17T17:07:34.322Z,25.50
2023-04-17T17:10:13.644Z,40.17
2023-04-17T17:12:47.565Z,24.30
2023-04-17T17:15:21.895Z,20.97
2023-04-17T17:17:56.239Z,22.90
2023-04-17T17:20:36.897Z,50.73
2023-04-17T17:23:16.258Z,46.77
2023-04-17T17:26:18.783Z,42.60
2023-04-17T17:28:56.103Z,24.27
2023-04-17T17:31:30.895Z,40.87
2023-04-17T17:34:24.613Z,54.47
2023-04-17T17:37:03.946Z,44.77
2023-04-17T17:39:41.316Z,41.60
2023-04-17T17:42:20.744Z,37.37
2023-04-17T17:44:55.381Z,38.90
2023-04-17T17:47:33.092Z,36.30
2023-04-17T17:50:08.233Z,45.73
2023-04-17T17:52:49.178Z,41.43
2023-04-17T17:55:27.933Z,42.97
2023-04-17T17:58:10.047Z,44.23
2023-04-17T18:00:51.003Z,38.93
2023-04-17T18:03:28.501Z,40.63
2023-04-17T18:06:02.601Z,33.10
2023-04-17T18:08:38.054Z,43.07
2023-04-17T18:11:16.266Z,44.37
2023-04-17T18:13:52.762Z,36.43
2023-04-17T18:16:27.201Z,32.50
2023-04-17T18:19:04.816Z,32.37
2023-04-17T18:21:42.598Z,32.23
2023-04-17T18:24:18.104Z,27.53
2023-04-17T18:26:51.896Z,34.27
2023-04-17T18:29:28.151Z,32.63
2023-04-17T18:32:02.139Z,41.77
2023-04-17T18:34:36.596Z,30.93
2023-04-17T18:37:16.711Z,38.00
2023-04-17T18:39:52.710Z,28.83
2023-04-17T18:42:31.395Z,27.27
2023-04-17T18:45:10.595Z,30.00
2023-04-17T18:47:47.569Z,32.77
2023-04-17T18:50:21.983Z,32.90
2023-04-17T18:52:57.857Z,27.77
2023-04-17T18:55:32.051Z,31.23
2023-04-17T18:58:10.427Z,35.53
2023-04-17T19:00:50.122Z,59.00
2023-04-17T19:03:24.314Z,53.00
2023-04-17T19:05:58.668Z,35.17
2023-04-17T19:08:33.017Z,33.27
2023-04-17T19:11:06.912Z,35.70
2023-04-17T19:13:41.063Z,29.10
2023-04-17T19:16:20.614Z,29.47
2023-04-17T19:18:54.873Z,30.93
2023-04-17T19:21:33.845Z,29.40
2023-04-17T19:24:11.468Z,33.60
2023-04-17T19:26:45.669Z,34.97
2023-04-17T19:29:19.520Z,31.10
2023-04-17T19:31:58.408Z,38.30
2023-04-17T19:34:34.590Z,36.23
2023-04-17T19:37:13.766Z,37.23
2023-04-17T19:39:48.165Z,40.33
2023-04-17T19:42:22.031Z,38.30
2023-04-17T19:44:55.881Z,44.77
2023-04-17T19:47:36.489Z,42.90
2023-04-17T19:50:11.632Z,45.43
2023-04-17T19:52:51.224Z,43.93
2023-04-17T19:55:29.417Z,41.37
2023-04-17T19:58:03.619Z,42.67
2023-04-17T20:00:40.926Z,38.30
2023-04-17T20:03:18.247Z,41.33
2023-04-17T20:05:52.789Z,38.27
2023-04-17T20:08:32.564Z,39.33
2023-04-17T20:11:07.907Z,39.13
2023-04-17T20:13:41.738Z,34.97
2023-04-17T20:16:15.716Z,41.47
2023-04-17T20:18:53.432Z,35.03
2023-04-17T20:21:31.282Z,39.37
2023-04-17T20:24:08.889Z,36.23
2023-04-17T20:26:42.796Z,34.93
2023-04-17T20:29:18.123Z,35.40
2023-04-17T20:31:52.562Z,31.07
2023-04-17T20:34:30.045Z,34.93
2023-04-17T20:37:04.138Z,37.77
2023-04-17T20:39:43.778Z,37.00
2023-04-17T20:42:18.224Z,35.27
2023-04-17T20:44:51.896Z,37.47
2023-04-17T20:50:29.798Z,35.50
2023-04-17T20:53:08.187Z,38.27
2023-04-17T20:55:45.155Z,32.20
2023-04-17T20:58:22.897Z,31.17
2023-04-17T21:01:01.110Z,36.10
2023-04-17T21:03:37.115Z,30.57
2023-04-17T21:06:16.394Z,35.13
2023-04-17T21:08:49.832Z,37.47
2023-04-17T21:11:23.830Z,36.57
2023-04-17T21:14:05.092Z,36.33
2023-04-17T21:16:38.863Z,38.60
2023-04-17T21:19:12.891Z,35.40
2023-04-17T21:21:50.226Z,35.30
2023-04-17T21:24:24.859Z,35.90
2023-04-17T21:27:00.515Z,41.43
2023-04-17T21:29:35.665Z,39.97
2023-04-17T21:32:09.817Z,38.57
2023-04-17T21:34:46.611Z,40.00
2023-04-17T21:37:25.415Z,38.37
2023-04-17T21:39:59.303Z,39.43
2023-04-17T21:42:33.481Z,35.30
2023-04-17T21:45:08.142Z,38.30
2023-04-17T21:47:42.714Z,41.47
2023-04-17T21:50:17.965Z,38.03
2023-04-17T21:52:54.253Z,37.47
2023-04-17T21:55:38.221Z,41.73
2023-04-17T21:58:12.921Z,40.47
2023-04-17T22:00:52.746Z,37.27
2023-04-17T22:03:29.593Z,35.70
2023-04-17T22:06:03.405Z,33.37
2023-04-17T22:08:40.110Z,31.63
2023-04-17T22:11:18.340Z,37.07
2023-04-17T22:13:57.469Z,33.63
2023-04-17T22:16:35.040Z,31.20
2023-04-17T22:19:08.966Z,30.63
2023-04-17T22:21:46.508Z,35.93
2023-04-17T22:24:24.669Z,36.13
2023-04-17T22:26:59.190Z,31.53
2023-04-17T22:29:33.089Z,31.90
2023-04-17T22:32:07.211Z,29.53
2023-04-17T22:34:43.725Z,31.33
2023-04-17T22:37:20.094Z,33.90
2023-04-17T22:40:01.263Z,34.77
2023-04-17T22:42:39.489Z,32.93
2023-04-17T22:45:19.590Z,31.50
2023-04-17T22:47:55.397Z,32.43
2023-04-17T22:50:31.243Z,32.90
2023-04-17T22:53:07.061Z,34.33
2023-04-17T22:55:43.019Z,35.80
2023-04-17T22:58:17.434Z,30.93
2023-04-17T23:00:52.466Z,30.77
2023-04-17T23:03:29.595Z,33.67
2023-04-17T23:06:06.709Z,32.33
2023-04-17T23:08:40.835Z,33.90
2023-04-17T23:11:19.443Z,35.43
2023-04-17T23:13:53.126Z,35.57
2023-04-17T23:16:27.016Z,38.23
2023-04-17T23:19:00.860Z,35.90
2023-04-17T23:21:34.658Z,40.07
2023-04-17T23:24:13.038Z,43.47
2023-04-17T23:26:50.305Z,40.80
2023-04-17T23:29:28.621Z,41.23
2023-04-17T23:32:02.569Z,38.07
2023-04-17T23:34:40.422Z,38.00
2023-04-17T23:37:15.339Z,40.47
2023-04-17T23:39:49.743Z,44.67
2023-04-17T23:42:28.642Z,36.73
2023-04-17T23:45:02.887Z,42.53
2023-04-17T23:47:41.976Z,39.10
2023-04-17T23:50:16.611Z,36.93
2023-04-17T23:52:50.955Z,40.17
2023-04-17T23:55:27.473Z,40.10
2023-04-17T23:58:04.219Z,41.60
